Terminal Aerodrome Forecast
Issued by NWS

Home | Current Version | Previous Version | Text Only | Print | Product List | Glossary On
Versions: 1 2 3 4 5 6 7 8 9 10 11 12 13 14
234
FTUS46 KMTR 251720
TAFSJC
TAF
KSJC 251720Z 2518/2618 31011KT P6SM SCT025 SCT100
     FM251900 31014G20KT P6SM FEW025 SCT080
     FM260300 30011G16KT P6SM FEW020 SCT060
     FM260700 31005KT P6SM FEW015 SCT025 BKN035
     FM261200 VRB03KT P6SM FEW010 SCT020 BKN030=

USA.gov is the U.S. government's official web portal to all federal, state and local government web resources and services.